Latest  Newer  Older  Last 2 hours slideshow  Last 24 hours slideshow  Refresh every 5 minutes 
Current image  Latest image  Rain/snow radar  Cloud coverage sat images 

All time is UTC (add 2 hours to UTC in wintertime, 3 hours to UTC in DST for Latvia local time)

2020/11/30 06:50 EVRA 300650Z 19003KT 2800 SN FEW004 BKN039 M01/M01 Q1019 R18/590339 BECMG OVC003
2020/11/30 06:50 EVLA 300650Z AUTO VRB02KT 9999 FEW048/// OVC054/// 00/M00 Q1020
2020/11/30 06:50 EVVA 300650Z AUTO VRB01KT 7000 BKN021 BKN026 OVC031 01/01 Q1019
2020/11/30 06:50 EYKA 300650Z 26003KT 9000 -SNRA OVC009 00/M02 Q1020 R08/290095
2020/11/30 06:50 EYPA 300650Z 15004KT CAVOK M01/M01 Q1021
2020/11/30 06:50 EYSA 300650Z 26005KT 5000 BR BKN004 OVC086 M01/M02 Q1019 R32R/29//95 R32L/29//95 YLO NOSIG
2020/11/30 06:50 EYVI 300650Z 29005KT 8000 OVC002 M01/M01 Q1019 R01/2///95 TEMPO 1500 BR
2020/11/30 06:20 EEKA 300620Z 26002KT 6000 -SN FEW007 FEW017 BKN034 00/M00 Q1019
2020/11/30 06:34 EEKE 300634Z 00000KT 4000 -SN SCT021 OVC031 M00/M01 Q1019
2020/11/30 06:20 EEPU 300620Z VRB01KT 3600 -SN BR BKN008 M01/M01 Q1018
2020/11/30 06:50 EETN 300650Z 12004KT 4400 SN FEW004 OVC048 M01/M01 Q1019 R08/490393 TEMPO 3000
2020/11/30 06:20 EETU 300620Z 10004KT 5000 -SN OVC005 M00/M00 Q1018
   RIGA AIRPORT     EVRA               56 55N  023 58E   10   X     T          6 LV
   LIEPAJA INTL     EVLA        26406  56 31N  021 06E    4   X                8 LV
   VENTPILS         EVVA               57 21N  021 33E    6   X                8 LV
   KAUNAS           EYKA               54 54N  023 55E   77   X     T          6 LT
   PALANGA INTL     EYPA               55 55N  021 03E   10   X                6 LT
   SIAULIAI INTL    EYSA               55 54N  023 24E  135   X     T          6 LT
   VILNIUS INTL     EYVI        26730  54 38N  025 17E  197   X     T          6 LT
   KARDLA           EEKA        26116  58 59N  022 50E    4   X                8 EE
   KURESSAARE       EEKE               58 14N  022 31E    4   X                8 EE
   PARNU            EEPU               58 25N  024 28E   14   X                8 EE
   TALLINN          EETN        26038  59 24N  024 49E   40   X     T          8 EE
   TARTU            EETU               58 19N  026 41E   67   X                8 EE